sensor_id;sensor_type;location;lat;lon;timestamp;P1;durP1;ratioP1;P2;durP2;ratioP2
58152;SDS011;43967;51.634;5.566;2023-03-04T00:04:49;13.67;;;3.00;;
58152;SDS011;43967;51.634;5.566;2023-03-04T00:10:10;9.27;;;3.05;;
58152;SDS011;43967;51.634;5.566;2023-03-04T00:15:31;9.40;;;3.05;;
58152;SDS011;43967;51.634;5.566;2023-03-04T00:20:53;9.07;;;3.20;;
58152;SDS011;43967;51.634;5.566;2023-03-04T00:26:14;10.20;;;2.85;;
58152;SDS011;43967;51.634;5.566;2023-03-04T00:31:36;8.82;;;3.13;;
58152;SDS011;43967;51.634;5.566;2023-03-04T00:36:57;10.83;;;2.90;;
58152;SDS011;43967;51.634;5.566;2023-03-04T00:42:18;10.60;;;3.47;;
58152;SDS011;43967;51.634;5.566;2023-03-04T00:47:40;9.98;;;3.22;;
58152;SDS011;43967;51.634;5.566;2023-03-04T00:53:01;9.88;;;3.03;;
58152;SDS011;43967;51.634;5.566;2023-03-04T00:58:22;8.47;;;2.83;;
58152;SDS011;43967;51.634;5.566;2023-03-04T01:03:43;9.95;;;3.28;;
58152;SDS011;43967;51.634;5.566;2023-03-04T01:09:05;10.13;;;3.08;;
58152;SDS011;43967;51.634;5.566;2023-03-04T01:14:26;8.53;;;3.10;;
58152;SDS011;43967;51.634;5.566;2023-03-04T01:19:47;7.35;;;2.83;;
58152;SDS011;43967;51.634;5.566;2023-03-04T01:25:09;9.30;;;2.97;;
58152;SDS011;43967;51.634;5.566;2023-03-04T01:30:30;9.07;;;2.93;;
58152;SDS011;43967;51.634;5.566;2023-03-04T01:35:52;8.40;;;2.97;;
58152;SDS011;43967;51.634;5.566;2023-03-04T01:41:13;8.88;;;2.90;;
58152;SDS011;43967;51.634;5.566;2023-03-04T01:46:37;8.10;;;2.35;;
58152;SDS011;43967;51.634;5.566;2023-03-04T01:52:02;8.07;;;2.93;;
58152;SDS011;43967;51.634;5.566;2023-03-04T01:57:24;6.88;;;2.90;;
58152;SDS011;43967;51.634;5.566;2023-03-04T02:02:46;8.20;;;2.33;;
58152;SDS011;43967;51.634;5.566;2023-03-04T02:08:09;8.80;;;2.83;;
58152;SDS011;43967;51.634;5.566;2023-03-04T02:13:31;9.63;;;2.65;;
58152;SDS011;43967;51.634;5.566;2023-03-04T02:18:53;9.23;;;2.35;;
58152;SDS011;43967;51.634;5.566;2023-03-04T02:29:58;8.00;;;2.87;;
58152;SDS011;43967;51.634;5.566;2023-03-04T02:35:20;9.80;;;3.00;;
58152;SDS011;43967;51.634;5.566;2023-03-04T02:40:42;8.43;;;2.60;;
58152;SDS011;43967;51.634;5.566;2023-03-04T02:46:09;8.37;;;2.03;;
58152;SDS011;43967;51.634;5.566;2023-03-04T02:51:32;9.32;;;2.40;;
58152;SDS011;43967;51.634;5.566;2023-03-04T02:56:55;6.53;;;2.13;;
58152;SDS011;43967;51.634;5.566;2023-03-04T03:02:18;7.93;;;2.37;;
58152;SDS011;43967;51.634;5.566;2023-03-04T03:07:39;9.02;;;2.22;;
58152;SDS011;43967;51.634;5.566;2023-03-04T03:13:01;6.80;;;1.98;;
58152;SDS011;43967;51.634;5.566;2023-03-04T03:18:22;6.80;;;2.40;;
58152;SDS011;43967;51.634;5.566;2023-03-04T03:23:43;7.97;;;2.13;;
58152;SDS011;43967;51.634;5.566;2023-03-04T03:29:05;7.45;;;2.30;;
58152;SDS011;43967;51.634;5.566;2023-03-04T03:34:26;9.27;;;2.85;;
58152;SDS011;43967;51.634;5.566;2023-03-04T03:39:47;8.77;;;2.03;;
58152;SDS011;43967;51.634;5.566;2023-03-04T03:45:09;7.15;;;2.17;;
58152;SDS011;43967;51.634;5.566;2023-03-04T03:50:30;6.65;;;1.75;;
58152;SDS011;43967;51.634;5.566;2023-03-04T03:55:51;7.97;;;2.37;;
58152;SDS011;43967;51.634;5.566;2023-03-04T04:01:13;7.82;;;2.10;;
58152;SDS011;43967;51.634;5.566;2023-03-04T04:06:34;7.55;;;2.47;;
58152;SDS011;43967;51.634;5.566;2023-03-04T04:11:55;7.73;;;2.53;;
58152;SDS011;43967;51.634;5.566;2023-03-04T04:17:17;8.43;;;2.37;;
58152;SDS011;43967;51.634;5.566;2023-03-04T04:22:38;6.45;;;2.30;;
58152;SDS011;43967;51.634;5.566;2023-03-04T04:27:59;7.18;;;2.08;;
58152;SDS011;43967;51.634;5.566;2023-03-04T04:33:21;8.17;;;2.03;;
58152;SDS011;43967;51.634;5.566;2023-03-04T04:38:42;6.47;;;2.03;;
58152;SDS011;43967;51.634;5.566;2023-03-04T04:44:04;7.65;;;2.03;;
58152;SDS011;43967;51.634;5.566;2023-03-04T04:49:25;6.63;;;1.83;;
58152;SDS011;43967;51.634;5.566;2023-03-04T04:54:47;7.53;;;2.22;;
58152;SDS011;43967;51.634;5.566;2023-03-04T05:00:08;6.75;;;2.17;;
58152;SDS011;43967;51.634;5.566;2023-03-04T05:05:30;7.63;;;2.40;;
58152;SDS011;43967;51.634;5.566;2023-03-04T05:10:51;7.77;;;2.00;;
58152;SDS011;43967;51.634;5.566;2023-03-04T05:16:13;7.78;;;2.05;;
58152;SDS011;43967;51.634;5.566;2023-03-04T05:21:36;7.00;;;2.53;;
58152;SDS011;43967;51.634;5.566;2023-03-04T05:26:57;8.17;;;2.37;;
58152;SDS011;43967;51.634;5.566;2023-03-04T05:32:18;7.20;;;1.80;;
58152;SDS011;43967;51.634;5.566;2023-03-04T05:37:39;7.32;;;1.90;;
58152;SDS011;43967;51.634;5.566;2023-03-04T05:43:01;6.83;;;2.33;;
58152;SDS011;43967;51.634;5.566;2023-03-04T05:48:22;6.18;;;2.03;;
58152;SDS011;43967;51.634;5.566;2023-03-04T05:53:44;6.25;;;1.85;;
58152;SDS011;43967;51.634;5.566;2023-03-04T05:59:05;7.50;;;2.23;;
58152;SDS011;43967;51.634;5.566;2023-03-04T06:04:26;7.13;;;2.00;;
58152;SDS011;43967;51.634;5.566;2023-03-04T06:09:48;5.78;;;2.00;;
58152;SDS011;43967;51.634;5.566;2023-03-04T06:15:09;7.82;;;2.15;;
58152;SDS011;43967;51.634;5.566;2023-03-04T06:20:31;5.80;;;1.70;;
58152;SDS011;43967;51.634;5.566;2023-03-04T06:25:53;8.07;;;2.42;;
58152;SDS011;43967;51.634;5.566;2023-03-04T06:31:16;6.00;;;1.77;;
58152;SDS011;43967;51.634;5.566;2023-03-04T06:36:37;6.70;;;2.30;;
58152;SDS011;43967;51.634;5.566;2023-03-04T06:41:58;6.55;;;1.52;;
58152;SDS011;43967;51.634;5.566;2023-03-04T06:47:20;6.35;;;2.05;;
58152;SDS011;43967;51.634;5.566;2023-03-04T06:52:41;6.23;;;2.27;;
58152;SDS011;43967;51.634;5.566;2023-03-04T06:58:02;6.67;;;1.90;;
58152;SDS011;43967;51.634;5.566;2023-03-04T07:03:23;6.65;;;2.10;;
58152;SDS011;43967;51.634;5.566;2023-03-04T07:08:45;7.10;;;1.90;;
58152;SDS011;43967;51.634;5.566;2023-03-04T07:14:07;5.73;;;1.57;;
58152;SDS011;43967;51.634;5.566;2023-03-04T07:19:28;6.40;;;1.92;;
58152;SDS011;43967;51.634;5.566;2023-03-04T07:24:49;7.00;;;2.00;;
58152;SDS011;43967;51.634;5.566;2023-03-04T07:30:11;6.93;;;2.10;;
58152;SDS011;43967;51.634;5.566;2023-03-04T07:35:32;6.35;;;1.70;;
58152;SDS011;43967;51.634;5.566;2023-03-04T07:40:57;6.40;;;1.80;;
58152;SDS011;43967;51.634;5.566;2023-03-04T07:46:19;6.73;;;2.03;;
58152;SDS011;43967;51.634;5.566;2023-03-04T07:51:40;6.00;;;1.67;;
58152;SDS011;43967;51.634;5.566;2023-03-04T07:57:01;8.35;;;2.20;;
58152;SDS011;43967;51.634;5.566;2023-03-04T08:02:22;5.75;;;1.58;;
58152;SDS011;43967;51.634;5.566;2023-03-04T08:07:44;5.93;;;1.50;;
58152;SDS011;43967;51.634;5.566;2023-03-04T08:13:06;5.47;;;1.50;;
58152;SDS011;43967;51.634;5.566;2023-03-04T08:18:27;6.28;;;1.50;;
58152;SDS011;43967;51.634;5.566;2023-03-04T08:23:49;6.53;;;1.77;;
58152;SDS011;43967;51.634;5.566;2023-03-04T08:29:13;6.38;;;1.50;;
58152;SDS011;43967;51.634;5.566;2023-03-04T08:34:37;5.88;;;1.50;;
58152;SDS011;43967;51.634;5.566;2023-03-04T08:39:59;6.07;;;1.47;;
58152;SDS011;43967;51.634;5.566;2023-03-04T08:45:21;5.43;;;1.47;;
58152;SDS011;43967;51.634;5.566;2023-03-04T08:50:42;6.78;;;1.98;;
58152;SDS011;43967;51.634;5.566;2023-03-04T08:56:05;6.28;;;1.23;;
58152;SDS011;43967;51.634;5.566;2023-03-04T09:01:26;7.13;;;1.80;;
58152;SDS011;43967;51.634;5.566;2023-03-04T09:06:48;7.00;;;1.70;;
58152;SDS011;43967;51.634;5.566;2023-03-04T09:12:09;7.20;;;1.88;;
58152;SDS011;43967;51.634;5.566;2023-03-04T09:17:31;8.80;;;1.80;;
58152;SDS011;43967;51.634;5.566;2023-03-04T09:22:52;8.05;;;2.05;;
58152;SDS011;43967;51.634;5.566;2023-03-04T09:28:14;12.40;;;2.05;;
58152;SDS011;43967;51.634;5.566;2023-03-04T09:33:36;8.50;;;1.80;;
58152;SDS011;43967;51.634;5.566;2023-03-04T09:38:58;8.33;;;1.90;;
58152;SDS011;43967;51.634;5.566;2023-03-04T09:44:39;17.58;;;2.08;;
58152;SDS011;43967;51.634;5.566;2023-03-04T09:50:04;7.78;;;2.00;;
58152;SDS011;43967;51.634;5.566;2023-03-04T09:55:31;6.90;;;1.70;;
58152;SDS011;43967;51.634;5.566;2023-03-04T10:01:07;9.40;;;2.03;;
58152;SDS011;43967;51.634;5.566;2023-03-04T10:06:36;8.20;;;2.00;;
58152;SDS011;43967;51.634;5.566;2023-03-04T10:12:01;6.97;;;1.93;;
58152;SDS011;43967;51.634;5.566;2023-03-04T10:17:34;6.88;;;1.70;;
58152;SDS011;43967;51.634;5.566;2023-03-04T10:22:57;7.18;;;1.70;;
58152;SDS011;43967;51.634;5.566;2023-03-04T10:28:23;7.27;;;1.77;;
58152;SDS011;43967;51.634;5.566;2023-03-04T10:33:49;5.60;;;1.20;;
58152;SDS011;43967;51.634;5.566;2023-03-04T10:39:12;7.15;;;1.90;;
58152;SDS011;43967;51.634;5.566;2023-03-04T10:44:43;6.72;;;1.75;;
58152;SDS011;43967;51.634;5.566;2023-03-04T10:50:22;5.80;;;1.17;;
58152;SDS011;43967;51.634;5.566;2023-03-04T10:55:46;9.38;;;1.92;;
58152;SDS011;43967;51.634;5.566;2023-03-04T11:01:09;8.07;;;1.80;;
58152;SDS011;43967;51.634;5.566;2023-03-04T11:06:38;6.10;;;1.60;;
58152;SDS011;43967;51.634;5.566;2023-03-04T11:12:01;5.32;;;1.45;;
58152;SDS011;43967;51.634;5.566;2023-03-04T11:17:39;6.85;;;1.80;;
58152;SDS011;43967;51.634;5.566;2023-03-04T11:23:06;5.90;;;1.50;;
58152;SDS011;43967;51.634;5.566;2023-03-04T11:40:07;6.45;;;1.50;;
58152;SDS011;43967;51.634;5.566;2023-03-04T11:51:47;6.72;;;1.60;;
58152;SDS011;43967;51.634;5.566;2023-03-04T12:03:41;5.60;;;1.67;;
58152;SDS011;43967;51.634;5.566;2023-03-04T12:26:44;6.07;;;1.70;;
58152;SDS011;43967;51.634;5.566;2023-03-04T12:43:26;6.33;;;1.57;;
58152;SDS011;43967;51.634;5.566;2023-03-04T12:49:17;6.35;;;1.42;;
58152;SDS011;43967;51.634;5.566;2023-03-04T12:54:52;7.43;;;1.48;;
58152;SDS011;43967;51.634;5.566;2023-03-04T13:11:52;6.45;;;1.48;;
58152;SDS011;43967;51.634;5.566;2023-03-04T13:23:21;6.20;;;1.47;;
58152;SDS011;43967;51.634;5.566;2023-03-04T13:28:45;5.68;;;1.33;;
58152;SDS011;43967;51.634;5.566;2023-03-04T13:34:50;6.93;;;1.90;;
58152;SDS011;43967;51.634;5.566;2023-03-04T13:45:42;5.30;;;1.38;;
58152;SDS011;43967;51.634;5.566;2023-03-04T13:51:11;7.70;;;1.58;;
58152;SDS011;43967;51.634;5.566;2023-03-04T14:01:59;6.25;;;1.38;;
58152;SDS011;43967;51.634;5.566;2023-03-04T14:07:27;53.83;;;28.80;;
58152;SDS011;43967;51.634;5.566;2023-03-04T14:12:57;49.93;;;25.77;;
58152;SDS011;43967;51.634;5.566;2023-03-04T14:18:20;45.13;;;24.23;;
58152;SDS011;43967;51.634;5.566;2023-03-04T14:23:41;39.35;;;22.80;;
58152;SDS011;43967;51.634;5.566;2023-03-04T14:29:17;38.83;;;20.63;;
58152;SDS011;43967;51.634;5.566;2023-03-04T14:34:43;35.87;;;18.10;;
58152;SDS011;43967;51.634;5.566;2023-03-04T14:40:17;33.40;;;18.73;;
58152;SDS011;43967;51.634;5.566;2023-03-04T14:45:42;34.40;;;17.25;;
58152;SDS011;43967;51.634;5.566;2023-03-04T14:51:26;30.73;;;17.30;;
58152;SDS011;43967;51.634;5.566;2023-03-04T14:57:27;32.35;;;16.20;;
58152;SDS011;43967;51.634;5.566;2023-03-04T15:03:02;28.92;;;14.95;;
58152;SDS011;43967;51.634;5.566;2023-03-04T15:08:36;27.50;;;14.93;;
58152;SDS011;43967;51.634;5.566;2023-03-04T15:13:59;29.70;;;15.10;;
58152;SDS011;43967;51.634;5.566;2023-03-04T15:19:25;27.30;;;13.77;;
58152;SDS011;43967;51.634;5.566;2023-03-04T15:24:48;28.48;;;13.52;;
58152;SDS011;43967;51.634;5.566;2023-03-04T15:30:14;23.87;;;12.93;;
58152;SDS011;43967;51.634;5.566;2023-03-04T15:35:37;26.15;;;12.57;;
58152;SDS011;43967;51.634;5.566;2023-03-04T15:41:00;21.95;;;11.40;;
58152;SDS011;43967;51.634;5.566;2023-03-04T15:46:21;22.07;;;10.50;;
58152;SDS011;43967;51.634;5.566;2023-03-04T15:51:43;20.30;;;10.48;;
58152;SDS011;43967;51.634;5.566;2023-03-04T15:57:05;19.33;;;10.52;;
58152;SDS011;43967;51.634;5.566;2023-03-04T16:02:40;20.27;;;9.77;;
58152;SDS011;43967;51.634;5.566;2023-03-04T16:08:02;19.20;;;9.43;;
58152;SDS011;43967;51.634;5.566;2023-03-04T16:13:23;20.33;;;9.05;;
58152;SDS011;43967;51.634;5.566;2023-03-04T16:18:44;18.75;;;9.85;;
58152;SDS011;43967;51.634;5.566;2023-03-04T16:24:08;15.40;;;8.10;;
58152;SDS011;43967;51.634;5.566;2023-03-04T16:29:36;18.73;;;9.07;;
58152;SDS011;43967;51.634;5.566;2023-03-04T16:34:57;17.52;;;8.30;;
58152;SDS011;43967;51.634;5.566;2023-03-04T16:40:19;19.13;;;8.20;;
58152;SDS011;43967;51.634;5.566;2023-03-04T16:45:45;15.55;;;7.35;;
58152;SDS011;43967;51.634;5.566;2023-03-04T16:51:13;16.70;;;7.35;;
58152;SDS011;43967;51.634;5.566;2023-03-04T16:56:37;14.47;;;6.77;;
58152;SDS011;43967;51.634;5.566;2023-03-04T17:01:58;14.07;;;6.40;;
58152;SDS011;43967;51.634;5.566;2023-03-04T17:07:20;13.73;;;6.47;;
58152;SDS011;43967;51.634;5.566;2023-03-04T17:12:41;12.93;;;5.88;;
58152;SDS011;43967;51.634;5.566;2023-03-04T17:18:02;14.07;;;5.93;;
58152;SDS011;43967;51.634;5.566;2023-03-04T17:23:24;13.75;;;5.57;;
58152;SDS011;43967;51.634;5.566;2023-03-04T17:28:45;13.63;;;5.55;;
58152;SDS011;43967;51.634;5.566;2023-03-04T17:34:07;12.97;;;5.57;;
58152;SDS011;43967;51.634;5.566;2023-03-04T17:39:28;11.60;;;5.20;;
58152;SDS011;43967;51.634;5.566;2023-03-04T17:44:50;11.82;;;4.97;;
58152;SDS011;43967;51.634;5.566;2023-03-04T17:50:11;11.57;;;4.43;;
58152;SDS011;43967;51.634;5.566;2023-03-04T17:55:32;11.07;;;4.27;;
58152;SDS011;43967;51.634;5.566;2023-03-04T18:00:58;12.45;;;4.80;;
58152;SDS011;43967;51.634;5.566;2023-03-04T18:06:21;10.40;;;4.32;;
58152;SDS011;43967;51.634;5.566;2023-03-04T18:11:43;11.10;;;4.27;;
58152;SDS011;43967;51.634;5.566;2023-03-04T18:17:04;10.02;;;3.80;;
58152;SDS011;43967;51.634;5.566;2023-03-04T18:22:25;9.50;;;3.65;;
58152;SDS011;43967;51.634;5.566;2023-03-04T18:27:47;11.07;;;4.43;;
58152;SDS011;43967;51.634;5.566;2023-03-04T18:33:08;9.20;;;4.05;;
58152;SDS011;43967;51.634;5.566;2023-03-04T18:38:29;9.38;;;3.60;;
58152;SDS011;43967;51.634;5.566;2023-03-04T18:43:51;10.30;;;3.80;;
58152;SDS011;43967;51.634;5.566;2023-03-04T18:49:12;9.97;;;3.43;;
58152;SDS011;43967;51.634;5.566;2023-03-04T18:54:34;11.20;;;3.65;;
58152;SDS011;43967;51.634;5.566;2023-03-04T18:59:59;9.90;;;3.33;;
58152;SDS011;43967;51.634;5.566;2023-03-04T19:05:23;8.83;;;3.33;;
58152;SDS011;43967;51.634;5.566;2023-03-04T19:10:47;10.18;;;3.35;;
58152;SDS011;43967;51.634;5.566;2023-03-04T19:16:08;7.68;;;2.97;;
58152;SDS011;43967;51.634;5.566;2023-03-04T19:21:30;10.43;;;3.13;;
58152;SDS011;43967;51.634;5.566;2023-03-04T19:26:52;8.68;;;3.20;;
58152;SDS011;43967;51.634;5.566;2023-03-04T19:32:13;8.88;;;3.10;;
58152;SDS011;43967;51.634;5.566;2023-03-04T19:37:35;8.50;;;2.80;;
58152;SDS011;43967;51.634;5.566;2023-03-04T19:42:56;9.20;;;2.93;;
58152;SDS011;43967;51.634;5.566;2023-03-04T19:48:17;9.48;;;3.17;;
58152;SDS011;43967;51.634;5.566;2023-03-04T19:53:39;9.23;;;3.00;;
58152;SDS011;43967;51.634;5.566;2023-03-04T19:59:00;9.33;;;2.57;;
58152;SDS011;43967;51.634;5.566;2023-03-04T20:04:21;7.47;;;2.95;;
58152;SDS011;43967;51.634;5.566;2023-03-04T20:09:42;9.15;;;2.60;;
58152;SDS011;43967;51.634;5.566;2023-03-04T20:15:05;8.03;;;2.57;;
58152;SDS011;43967;51.634;5.566;2023-03-04T20:20:27;8.27;;;2.45;;
58152;SDS011;43967;51.634;5.566;2023-03-04T20:25:48;7.55;;;2.50;;
58152;SDS011;43967;51.634;5.566;2023-03-04T20:36:31;8.00;;;2.13;;
58152;SDS011;43967;51.634;5.566;2023-03-04T20:41:52;7.90;;;2.38;;
58152;SDS011;43967;51.634;5.566;2023-03-04T20:47:13;7.07;;;2.13;;
58152;SDS011;43967;51.634;5.566;2023-03-04T20:52:35;8.67;;;2.33;;
58152;SDS011;43967;51.634;5.566;2023-03-04T20:57:56;7.75;;;2.30;;
58152;SDS011;43967;51.634;5.566;2023-03-04T21:03:17;6.55;;;2.00;;
58152;SDS011;43967;51.634;5.566;2023-03-04T21:08:39;7.50;;;2.23;;
58152;SDS011;43967;51.634;5.566;2023-03-04T21:14:01;7.18;;;1.98;;
58152;SDS011;43967;51.634;5.566;2023-03-04T21:19:23;7.90;;;2.20;;
58152;SDS011;43967;51.634;5.566;2023-03-04T21:24:47;6.20;;;1.63;;
58152;SDS011;43967;51.634;5.566;2023-03-04T21:30:09;9.83;;;2.10;;
58152;SDS011;43967;51.634;5.566;2023-03-04T21:35:32;7.78;;;2.10;;
58152;SDS011;43967;51.634;5.566;2023-03-04T21:40:54;8.65;;;1.77;;
58152;SDS011;43967;51.634;5.566;2023-03-04T21:46:16;7.90;;;1.80;;
58152;SDS011;43967;51.634;5.566;2023-03-04T21:51:37;8.43;;;2.17;;
58152;SDS011;43967;51.634;5.566;2023-03-04T21:56:59;9.02;;;1.90;;
58152;SDS011;43967;51.634;5.566;2023-03-04T22:02:20;9.30;;;2.17;;
58152;SDS011;43967;51.634;5.566;2023-03-04T22:07:42;6.60;;;1.70;;
58152;SDS011;43967;51.634;5.566;2023-03-04T22:13:03;7.13;;;2.10;;
58152;SDS011;43967;51.634;5.566;2023-03-04T22:18:25;7.90;;;2.00;;
58152;SDS011;43967;51.634;5.566;2023-03-04T22:23:47;7.43;;;2.27;;
58152;SDS011;43967;51.634;5.566;2023-03-04T22:29:08;8.07;;;2.28;;
58152;SDS011;43967;51.634;5.566;2023-03-04T22:34:30;8.88;;;2.47;;
58152;SDS011;43967;51.634;5.566;2023-03-04T22:39:51;6.80;;;1.93;;
58152;SDS011;43967;51.634;5.566;2023-03-04T22:45:13;8.75;;;2.50;;
58152;SDS011;43967;51.634;5.566;2023-03-04T22:50:36;7.15;;;2.03;;
58152;SDS011;43967;51.634;5.566;2023-03-04T22:55:57;6.50;;;2.10;;
58152;SDS011;43967;51.634;5.566;2023-03-04T23:01:19;7.32;;;1.98;;
58152;SDS011;43967;51.634;5.566;2023-03-04T23:06:40;7.93;;;2.17;;
58152;SDS011;43967;51.634;5.566;2023-03-04T23:12:01;6.87;;;2.43;;
58152;SDS011;43967;51.634;5.566;2023-03-04T23:17:22;7.13;;;2.00;;
58152;SDS011;43967;51.634;5.566;2023-03-04T23:22:45;7.63;;;1.80;;
58152;SDS011;43967;51.634;5.566;2023-03-04T23:28:07;9.02;;;1.75;;
58152;SDS011;43967;51.634;5.566;2023-03-04T23:33:28;6.73;;;2.00;;
58152;SDS011;43967;51.634;5.566;2023-03-04T23:38:50;7.03;;;2.20;;
58152;SDS011;43967;51.634;5.566;2023-03-04T23:44:12;6.30;;;2.05;;
58152;SDS011;43967;51.634;5.566;2023-03-04T23:49:33;7.03;;;2.07;;
58152;SDS011;43967;51.634;5.566;2023-03-04T23:54:54;6.68;;;1.88;;
